Time;durP1;ratioP1;P1;durP2;ratioP2;P2;SDS_P1;SDS_P2;PMS_P1;PMS_P2;Temp;Humidity;BMP_temperature;BMP_pressure;BME280_temperature;BME280_humidity;BME280_pressure;Samples;Min_cycle;Max_cycle;Signal;HPM_P1;HPM_P2
2021/05/10 00:01:03;;;;;;;;;;;;;;;22.36;34.38;98724.16;4416191;32;19965;-51
2021/05/10 00:03:29;;;;;;;;;;;;;;;22.34;34.41;98715.38;4408072;32;19958;-50
2021/05/10 00:05:55;;;;;;;;;;;;;;;22.45;34.17;98718.66;4401672;32;20010;-53
2021/05/10 00:08:22;;;;;;;;;;;;;;;22.43;34.18;98720.47;4408277;32;19996;-51
2021/05/10 00:10:48;;;;;;;;;;;;;;;22.42;34.13;98721.37;4415790;32;19962;-52
2021/05/10 00:13:16;;;;;;;;;;;;;;;22.41;34.30;98724.94;4409509;32;20362;-54
2021/05/10 00:15:42;;;;;;;;;;;;;;;22.40;34.32;98720.53;4401191;32;19965;-55
2021/05/10 00:18:08;;;;;;;;;;;;;;;22.30;34.43;98724.31;4405609;32;20295;-51
2021/05/10 00:20:34;;;;;;;;;;;;;;;22.29;34.51;98730.53;4415951;32;19954;-55
2021/05/10 00:23:00;;;;;;;;;;;;;;;22.30;34.45;98727.81;4413013;32;19959;-55
2021/05/10 00:25:26;;;;;;;;;;;;;;;22.11;34.76;98716.75;4400513;32;19984;-55
2021/05/10 00:27:52;;;;;;;;;;;;;;;22.22;34.68;98718.28;4402256;32;19985;-54
2021/05/10 00:30:18;;;;;;;;;;;;;;;22.29;34.61;98714.63;4415171;32;20342;-54
2021/05/10 00:32:43;;;;;;;;;;;;;;;22.22;34.65;98718.28;4414947;32;19950;-53
2021/05/10 00:35:09;;;;;;;;;;;;;;;22.22;34.64;98720.94;4400779;32;19961;-53
2021/05/10 00:37:35;;;;;;;;;;;;;;;22.26;34.53;98712.91;4400851;32;20002;-54
2021/05/10 00:40:01;;;;;;;;;;;;;;;22.26;34.55;98712.00;4414805;32;19993;-53
2021/05/10 00:42:27;;;;;;;;;;;;;;;22.23;34.62;98707.66;4430738;32;20462;-55
2021/05/10 00:44:53;;;;;;;;;;;;;;;22.13;34.85;98704.31;4418224;32;19998;-55
2021/05/10 00:47:19;;;;;;;;;;;;;;;22.11;34.86;98711.44;4422673;32;20025;-56
2021/05/10 00:49:45;;;;;;;;;;;;;;;22.18;34.68;98712.19;4404732;32;19970;-54
2021/05/10 00:52:11;;;;;;;;;;;;;;;22.21;34.67;98713.91;4401624;32;19947;-55
2021/05/10 00:54:36;;;;;;;;;;;;;;;22.16;34.70;98714.88;4412324;32;19954;-53
2021/05/10 00:57:02;;;;;;;;;;;;;;;22.21;34.68;98714.75;4416435;32;19954;-50
2021/05/10 00:59:28;;;;;;;;;;;;;;;22.19;34.80;98700.66;4415779;32;20011;-53
2021/05/10 01:01:54;;;;;;;;;;;;;;;22.16;34.70;98698.97;4417017;32;19976;-55
2021/05/10 01:04:20;;;;;;;;;;;;;;;22.07;34.91;98704.47;4416475;32;19946;-55
2021/05/10 01:06:46;;;;;;;;;;;;;;;22.08;34.89;98700.91;4416881;32;20352;-53
2021/05/10 01:09:12;;;;;;;;;;;;;;;22.13;34.72;98706.97;4409874;32;19996;-54
2021/05/10 01:11:38;;;;;;;;;;;;;;;22.24;34.60;98700.56;4401671;32;19954;-55
2021/05/10 01:14:04;;;;;;;;;;;;;;;22.11;34.77;98714.09;4405549;32;20300;-56
2021/05/10 01:16:30;;;;;;;;;;;;;;;22.12;34.79;98726.44;4416735;32;19999;-56
2021/05/10 01:18:56;;;;;;;;;;;;;;;22.08;34.89;98714.16;4427946;32;19977;-56
2021/05/10 01:21:22;;;;;;;;;;;;;;;22.00;35.02;98716.09;4416715;32;19958;-54
2021/05/10 01:23:47;;;;;;;;;;;;;;;22.06;34.95;98700.06;4416067;32;19950;-56
2021/05/10 01:26:13;;;;;;;;;;;;;;;22.11;34.85;98705.28;4422541;32;19954;-55
2021/05/10 01:28:39;;;;;;;;;;;;;;;22.07;34.92;98695.63;4421310;32;19964;-53
2021/05/10 01:31:05;;;;;;;;;;;;;;;22.03;35.03;98694.81;4400622;32;19956;-54
2021/05/10 01:33:31;;;;;;;;;;;;;;;22.00;35.02;98695.78;4401901;32;20133;-56
2021/05/10 01:35:57;;;;;;;;;;;;;;;22.00;35.09;98663.97;4416152;32;19994;-56
2021/05/10 01:38:23;;;;;;;;;;;;;;;21.98;35.13;98609.25;4416144;32;20052;-56
2021/05/10 01:40:49;;;;;;;;;;;;;;;21.89;35.27;98566.13;4415255;32;19990;-54
2021/05/10 01:43:16;;;;;;;;;;;;;;;21.84;35.17;98519.44;4415862;32;19968;-56
2021/05/10 01:45:42;;;;;;;;;;;;;;;21.95;35.10;98528.03;4416094;32;20019;-54
2021/05/10 01:48:08;;;;;;;;;;;;;;;21.91;35.11;98521.06;4416038;32;19962;-52
2021/05/10 01:50:34;;;;;;;;;;;;;;;21.96;35.07;98544.81;4409213;32;19954;-54
2021/05/10 01:52:59;;;;;;;;;;;;;;;21.99;34.88;98542.06;4416548;32;19989;-56
2021/05/10 01:55:26;;;;;;;;;;;;;;;21.97;35.04;98538.59;4410788;32;19989;-51
2021/05/10 01:57:52;;;;;;;;;;;;;;;21.95;35.04;98532.47;4402970;32;19982;-56
2021/05/10 02:00:17;;;;;;;;;;;;;;;21.95;35.10;98527.16;4408714;32;20386;-55
2021/05/10 02:02:43;;;;;;;;;;;;;;;21.96;35.13;98547.47;4409548;32;19994;-51
2021/05/10 02:05:09;;;;;;;;;;;;;;;21.95;35.14;98548.38;4412675;32;19955;-52
2021/05/10 02:07:35;;;;;;;;;;;;;;;21.93;34.98;98548.38;4411018;32;19957;-49
2021/05/10 02:10:01;;;;;;;;;;;;;;;21.84;35.19;98541.53;4411001;32;19994;-54
2021/05/10 02:12:27;;;;;;;;;;;;;;;21.83;35.21;98539.78;4411863;32;19950;-54
2021/05/10 02:14:53;;;;;;;;;;;;;;;21.89;35.23;98534.34;4417616;32;19934;-53
2021/05/10 02:17:19;;;;;;;;;;;;;;;21.85;35.16;98535.31;4414014;32;20366;-54
2021/05/10 02:19:45;;;;;;;;;;;;;;;21.79;35.40;98537.25;4412214;32;19995;-53
2021/05/10 02:22:11;;;;;;;;;;;;;;;21.85;35.30;98537.97;4411590;32;20298;-52
2021/05/10 02:24:37;;;;;;;;;;;;;;;21.86;35.14;98549.47;4411175;32;20343;-54
2021/05/10 02:27:03;;;;;;;;;;;;;;;21.80;35.20;98554.88;4410445;32;20290;-51
2021/05/10 02:29:28;;;;;;;;;;;;;;;21.84;35.14;98561.84;4408341;32;20267;-49
2021/05/10 02:31:54;;;;;;;;;;;;;;;21.85;35.12;98569.78;4412169;32;19942;-53
2021/05/10 02:34:20;;;;;;;;;;;;;;;21.82;35.20;98567.19;4410019;32;19951;-50
2021/05/10 02:36:46;;;;;;;;;;;;;;;21.86;34.99;98575.94;4411943;32;19954;-54
2021/05/10 02:39:12;;;;;;;;;;;;;;;21.86;35.19;98582.09;4409955;32;20022;-53
2021/05/10 02:41:38;;;;;;;;;;;;;;;21.83;35.17;98597.19;4412568;32;19964;-51
2021/05/10 02:44:04;;;;;;;;;;;;;;;21.78;35.19;98607.03;4408887;32;19945;-55
2021/05/10 02:46:29;;;;;;;;;;;;;;;21.78;35.19;98613.19;4412048;32;19950;-55
2021/05/10 02:48:56;;;;;;;;;;;;;;;21.81;35.14;98613.16;4410132;32;20335;-54
2021/05/10 02:51:22;;;;;;;;;;;;;;;21.76;35.17;98622.94;4412745;32;20004;-54
2021/05/10 02:53:48;;;;;;;;;;;;;;;21.76;35.22;98625.59;4409795;32;19955;-55
2021/05/10 02:56:14;;;;;;;;;;;;;;;21.72;35.27;98623.94;4410545;32;19958;-51
2021/05/10 02:58:40;;;;;;;;;;;;;;;21.74;35.30;98624.78;4404602;32;19955;-55
2021/05/10 03:01:06;;;;;;;;;;;;;;;21.80;35.06;98629.06;4409633;32;19960;-54
2021/05/10 03:03:31;;;;;;;;;;;;;;;21.76;35.28;98633.56;4418540;32;20331;-54
2021/05/10 03:05:57;;;;;;;;;;;;;;;21.73;35.26;98630.97;4418360;32;19994;-56
2021/05/10 03:08:23;;;;;;;;;;;;;;;21.78;35.09;98614.97;4418014;32;19964;-54
2021/05/10 03:10:49;;;;;;;;;;;;;;;21.77;35.05;98595.56;4420106;32;19961;-54
2021/05/10 03:13:15;;;;;;;;;;;;;;;21.79;35.07;98582.28;4402536;32;20245;-54
2021/05/10 03:15:41;;;;;;;;;;;;;;;21.76;35.18;98612.34;4406211;32;19942;-52
2021/05/10 03:18:07;;;;;;;;;;;;;;;21.74;35.08;98601.81;4418989;32;19958;-55
2021/05/10 03:20:32;;;;;;;;;;;;;;;21.76;35.05;98638.84;4418874;32;19950;-55
2021/05/10 03:22:58;;;;;;;;;;;;;;;21.71;35.03;98656.62;4407177;32;20742;-53
2021/05/10 03:25:25;;;;;;;;;;;;;;;21.68;35.16;98651.41;4411410;32;19986;-53
2021/05/10 03:27:50;;;;;;;;;;;;;;;21.66;35.19;98627.59;4433658;32;19946;-52
2021/05/10 03:30:16;;;;;;;;;;;;;;;21.73;35.18;98615.06;4433502;32;19994;-55
2021/05/10 03:32:42;;;;;;;;;;;;;;;21.76;34.95;98607.06;4433737;32;20047;-52
2021/05/10 03:35:08;;;;;;;;;;;;;;;21.77;35.01;98624.69;4433552;32;19942;-56
2021/05/10 03:37:34;;;;;;;;;;;;;;;21.70;35.11;98623.09;4421491;32;19946;-56
2021/05/10 03:40:00;;;;;;;;;;;;;;;21.70;35.08;98626.59;4416412;32;20350;-55
2021/05/10 03:42:26;;;;;;;;;;;;;;;21.72;35.14;98624.78;4428790;32;19973;-54
2021/05/10 03:44:53;;;;;;;;;;;;;;;21.77;34.99;98622.03;4432941;32;19996;-54
2021/05/10 03:47:19;;;;;;;;;;;;;;;21.82;34.93;98628.13;4423290;32;19992;-56
2021/05/10 03:49:44;;;;;;;;;;;;;;;21.74;34.96;98636.25;4417590;32;20327;-54
2021/05/10 03:52:10;;;;;;;;;;;;;;;21.68;35.07;98632.84;4425588;32;19949;-53
2021/05/10 03:54:36;;;;;;;;;;;;;;;21.66;35.11;98637.25;4432308;32;20008;-53
2021/05/10 03:57:02;;;;;;;;;;;;;;;21.73;34.98;98649.53;4424994;32;19950;-49
2021/05/10 03:59:28;;;;;;;;;;;;;;;21.66;35.08;98646.13;4416952;32;20331;-52
2021/05/10 04:01:57;;;;;;;;;;;;;;;21.62;35.09;98634.69;4423511;32;19965;-53
2021/05/10 04:04:28;;;;;;;;;;;;;;;21.55;35.24;98654.28;4432922;32;20420;-54
2021/05/10 04:14:57;;;;;;;;;;;;;;;21.56;35.38;98827.28;4423522;32;19973;-52
2021/05/10 04:17:22;;;;;;;;;;;;;;;21.57;35.27;98845.81;4416770;32;20042;-53
2021/05/10 04:19:48;;;;;;;;;;;;;;;21.60;35.25;98824.56;4401717;32;19962;-56
2021/05/10 04:22:14;;;;;;;;;;;;;;;21.54;35.34;98815.84;4407738;32;20388;-50
2021/05/10 04:24:40;;;;;;;;;;;;;;;21.56;35.35;98822.88;4416466;32;19943;-51
2021/05/10 04:27:07;;;;;;;;;;;;;;;21.47;35.53;98823.03;4416468;32;20313;-53
2021/05/10 04:29:33;;;;;;;;;;;;;;;21.43;35.62;98808.09;4416807;32;20297;-55
2021/05/10 04:31:59;;;;;;;;;;;;;;;21.42;35.73;98809.84;4417226;32;20052;-53
2021/05/10 04:34:25;;;;;;;;;;;;;;;21.41;35.64;98804.56;4416798;32;19966;-52
2021/05/10 04:36:51;;;;;;;;;;;;;;;21.43;35.58;98794.84;4421992;32;20294;-55
2021/05/10 04:39:16;;;;;;;;;;;;;;;21.45;35.83;98788.59;4399808;32;19969;-51
2021/05/10 04:41:42;;;;;;;;;;;;;;;21.51;35.50;98802.66;4401888;32;19950;-54
2021/05/10 04:44:08;;;;;;;;;;;;;;;21.52;35.47;98807.91;4416595;32;19934;-55
2021/05/10 04:46:34;;;;;;;;;;;;;;;21.53;35.40;98809.66;4417293;32;19938;-51
2021/05/10 04:49:00;;;;;;;;;;;;;;;21.50;35.54;98811.50;4416659;32;19972;-55
2021/05/10 04:51:26;;;;;;;;;;;;;;;21.56;35.45;98812.28;4417511;32;20283;-53
2021/05/10 04:53:52;;;;;;;;;;;;;;;21.55;35.48;98822.88;4417215;32;19989;-53
2021/05/10 04:56:18;;;;;;;;;;;;;;;21.48;35.42;98819.47;4416761;32;20034;-55
2021/05/10 04:58:44;;;;;;;;;;;;;;;21.50;35.39;98817.66;4415988;32;20302;-54
2021/05/10 05:01:09;;;;;;;;;;;;;;;21.46;35.56;98821.28;4415107;32;19966;-55
2021/05/10 05:03:35;;;;;;;;;;;;;;;21.44;35.62;98817.78;4411729;32;19961;-59
2021/05/10 05:06:01;;;;;;;;;;;;;;;21.52;35.87;98823.81;4402206;32;20433;-53
2021/05/10 05:08:27;;;;;;;;;;;;;;;21.48;36.40;98841.53;4415781;32;19958;-53
2021/05/10 05:10:53;;;;;;;;;;;;;;;21.54;36.69;98839.69;4416584;32;19950;-54
2021/05/10 05:13:19;;;;;;;;;;;;;;;21.61;36.59;98842.19;4415047;32;20279;-55
2021/05/10 05:15:45;;;;;;;;;;;;;;;21.65;36.64;98826.25;4401434;32;19965;-51
2021/05/10 05:18:11;;;;;;;;;;;;;;;21.50;36.74;98828.25;4407004;32;19995;-55
2021/05/10 05:20:37;;;;;;;;;;;;;;;21.38;37.07;98854.94;4415859;32;19954;-55
2021/05/10 05:23:03;;;;;;;;;;;;;;;21.50;37.07;98862.69;4416138;32;19960;-52
2021/05/10 05:25:29;;;;;;;;;;;;;;;21.54;36.56;98871.47;4416462;32;19970;-51
2021/05/10 05:27:55;;;;;;;;;;;;;;;21.58;36.74;98865.22;4411254;32;19956;-55
2021/05/10 05:30:21;;;;;;;;;;;;;;;21.53;36.56;98859.97;4429594;32;20355;-55
2021/05/10 05:32:48;;;;;;;;;;;;;;;21.63;36.49;98851.00;4429567;32;19995;-53
2021/05/10 05:35:14;;;;;;;;;;;;;;;21.68;36.47;98858.03;4415141;32;20002;-53
2021/05/10 05:37:40;;;;;;;;;;;;;;;21.68;36.40;98866.84;4423317;32;20436;-51
2021/05/10 05:40:06;;;;;;;;;;;;;;;21.70;36.37;98872.97;4402805;32;20632;-54
2021/05/10 05:42:32;;;;;;;;;;;;;;;21.75;36.24;98878.22;4402737;32;19993;-50
2021/05/10 05:44:58;;;;;;;;;;;;;;;21.75;36.34;98875.56;4417449;32;19949;-53
2021/05/10 05:47:28;;;;;;;;;;;;;;;21.73;36.37;98885.31;4417743;32;19954;-54
2021/05/10 05:49:54;;;;;;;;;;;;;;;21.72;36.26;98883.56;4408718;32;19962;-54
2021/05/10 05:52:20;;;;;;;;;;;;;;;21.76;36.03;98887.91;4404095;32;19997;-53
2021/05/10 05:54:46;;;;;;;;;;;;;;;21.81;35.81;98883.41;4415505;32;19950;-54
2021/05/10 05:57:12;;;;;;;;;;;;;;;21.81;35.87;98886.06;4420419;32;20027;-54
2021/05/10 05:59:38;;;;;;;;;;;;;;;21.82;35.87;98882.50;4418248;32;19962;-54
2021/05/10 06:02:04;;;;;;;;;;;;;;;21.83;35.84;98886.91;4415341;32;19953;-53
2021/05/10 06:04:30;;;;;;;;;;;;;;;21.84;35.79;98895.72;4416945;32;19966;-52
2021/05/10 06:06:56;;;;;;;;;;;;;;;21.78;35.66;98888.75;4414743;32;19990;-53
2021/05/10 06:09:23;;;;;;;;;;;;;;;21.72;35.70;98889.72;4414683;32;20087;-52
2021/05/10 06:11:49;;;;;;;;;;;;;;;21.79;35.67;98909.03;4409893;32;20360;-51
2021/05/10 06:14:15;;;;;;;;;;;;;;;21.85;35.60;98914.25;4410267;32;19953;-49
2021/05/10 06:16:41;;;;;;;;;;;;;;;21.85;35.59;98908.94;4414051;32;19955;-55
2021/05/10 06:19:07;;;;;;;;;;;;;;;21.86;35.58;98921.28;4406521;32;19982;-51
2021/05/10 06:21:33;;;;;;;;;;;;;;;21.88;35.47;98918.63;4422201;32;19939;-54
2021/05/10 06:23:59;;;;;;;;;;;;;;;21.86;35.47;98923.94;4425895;32;20393;-53
2021/05/10 06:26:24;;;;;;;;;;;;;;;21.85;35.54;98919.56;4427258;32;19985;-54
2021/05/10 06:28:50;;;;;;;;;;;;;;;21.83;35.42;98916.06;4425461;32;19968;-54
2021/05/10 06:31:16;;;;;;;;;;;;;;;21.82;35.63;98913.41;4426840;32;19949;-52
2021/05/10 06:33:44;;;;;;;;;;;;;;;21.87;35.52;98922.19;4426024;32;20017;-53
2021/05/10 06:36:10;;;;;;;;;;;;;;;21.88;35.43;98924.78;4427362;32;19954;-52
2021/05/10 06:38:36;;;;;;;;;;;;;;;21.89;35.50;98921.22;4427010;32;20349;-55
2021/05/10 06:41:02;;;;;;;;;;;;;;;21.90;35.41;98922.12;4426352;32;20396;-54
2021/05/10 06:43:28;;;;;;;;;;;;;;;21.88;35.60;98924.78;4423741;32;20021;-50
2021/05/10 06:45:54;;;;;;;;;;;;;;;21.69;36.05;98918.91;4401821;32;19984;-53
2021/05/10 06:48:20;;;;;;;;;;;;;;;21.73;35.77;98907.41;4417289;32;20005;-50
2021/05/10 06:50:46;;;;;;;;;;;;;;;21.86;35.61;98910.69;4429463;32;19958;-54
2021/05/10 06:53:12;;;;;;;;;;;;;;;21.91;35.50;98902.66;4431946;32;20002;-52
2021/05/10 06:55:38;;;;;;;;;;;;;;;21.91;35.44;98907.97;4421338;32;19974;-52
2021/05/10 06:58:04;;;;;;;;;;;;;;;21.91;35.44;98918.56;4424177;32;19962;-54
2021/05/10 07:00:30;;;;;;;;;;;;;;;21.90;35.38;98924.78;4421986;32;19954;-53
2021/05/10 07:02:55;;;;;;;;;;;;;;;21.93;35.31;98918.56;4417271;32;20571;-53
2021/05/10 07:05:21;;;;;;;;;;;;;;;21.99;35.19;98916.69;4424936;32;19985;-53
2021/05/10 07:07:47;;;;;;;;;;;;;;;21.99;35.38;98915.78;4431750;32;19951;-54
2021/05/10 07:10:13;;;;;;;;;;;;;;;21.97;35.39;98922.91;4425756;32;19990;-53
2021/05/10 07:12:39;;;;;;;;;;;;;;;21.97;35.44;98928.19;4416820;32;19962;-54
2021/05/10 07:15:05;;;;;;;;;;;;;;;21.97;35.34;98936.16;4421369;32;20415;-53
2021/05/10 07:17:31;;;;;;;;;;;;;;;21.98;35.23;98946.72;4431817;32;19993;-54
2021/05/10 07:19:57;;;;;;;;;;;;;;;22.00;35.27;98942.28;4428073;32;19954;-53
2021/05/10 07:22:23;;;;;;;;;;;;;;;22.02;35.23;98942.22;4415719;32;20045;-51
2021/05/10 07:24:48;;;;;;;;;;;;;;;22.02;35.17;98940.47;4419298;32;19953;-51
2021/05/10 07:27:14;;;;;;;;;;;;;;;21.98;35.20;98937.91;4431724;32;20018;-52
2021/05/10 07:29:40;;;;;;;;;;;;;;;21.87;35.44;98938.94;4429886;32;20400;-54
2021/05/10 07:32:06;;;;;;;;;;;;;;;21.83;35.52;98957.56;4415721;32;19962;-52
2021/05/10 07:34:32;;;;;;;;;;;;;;;21.78;35.68;98944.38;4418347;32;19950;-51
2021/05/10 07:36:58;;;;;;;;;;;;;;;21.78;35.62;98939.09;4433159;32;20622;-48
2021/05/10 07:39:24;;;;;;;;;;;;;;;21.79;35.64;98935.53;4432006;32;19966;-53
2021/05/10 07:41:50;;;;;;;;;;;;;;;21.89;35.63;98942.44;4418539;32;19978;-48
2021/05/10 07:44:16;;;;;;;;;;;;;;;21.86;35.66;98942.50;4416480;32;20362;-51
2021/05/10 07:46:41;;;;;;;;;;;;;;;21.79;35.77;98954.09;4430227;32;19977;-53
2021/05/10 07:49:07;;;;;;;;;;;;;;;21.85;35.66;98967.25;4432487;32;19950;-54
2021/05/10 07:51:33;;;;;;;;;;;;;;;21.97;35.37;98970.59;4421083;32;20023;-55
2021/05/10 07:53:59;;;;;;;;;;;;;;;22.02;35.32;98979.34;4416820;32;20332;-50
2021/05/10 07:56:26;;;;;;;;;;;;;;;22.03;35.30;98991.69;4425563;32;19981;-53
2021/05/10 07:58:52;;;;;;;;;;;;;;;22.00;35.34;99003.25;4430084;32;19993;-55
2021/05/10 08:01:18;;;;;;;;;;;;;;;22.06;35.25;99007.56;4422542;32;20252;-52
2021/05/10 08:03:45;;;;;;;;;;;;;;;22.06;35.19;99011.97;4416538;32;19973;-51
2021/05/10 08:06:11;;;;;;;;;;;;;;;22.04;35.29;99018.19;4423743;32;20373;-52
2021/05/10 08:08:37;;;;;;;;;;;;;;;22.00;35.44;99013.84;4430763;32;19960;-51
2021/05/10 08:11:03;;;;;;;;;;;;;;;21.98;35.40;99017.41;4428972;32;20020;-52
2021/05/10 08:13:29;;;;;;;;;;;;;;;21.95;35.82;99004.22;4416966;32;20327;-60
2021/05/10 08:15:55;;;;;;;;;;;;;;;21.20;42.79;99016.69;4418707;32;19950;-54
2021/05/10 08:18:21;;;;;;;;;;;;;;;21.11;43.34;99015.94;4426857;32;19954;-58
2021/05/10 08:20:47;;;;;;;;;;;;;;;20.61;45.64;99027.03;4423011;32;19980;-55
2021/05/10 08:23:13;;;;;;;;;;;;;;;20.07;48.04;99031.03;4420873;32;19950;-54
2021/05/10 08:25:39;;;;;;;;;;;;;;;20.38;46.60;99024.63;4424365;32;19955;-56
2021/05/10 08:28:05;;;;;;;;;;;;;;;20.45;46.48;99027.19;4420064;32;20746;-56
2021/05/10 08:30:31;;;;;;;;;;;;;;;20.38;46.91;99014.91;4417516;32;20005;-56
2021/05/10 08:33:01;;;;;;;;;;;;;;;20.10;47.80;99006.34;4419540;32;19968;-56
2021/05/10 08:35:27;;;;;;;;;;;;;;;20.12;47.82;99013.38;4415531;32;20352;-54
2021/05/10 08:37:53;;;;;;;;;;;;;;;20.03;47.82;99008.16;4429133;32;19964;-55
2021/05/10 08:40:19;;;;;;;;;;;;;;;20.15;48.26;99018.63;4423218;32;19991;-56
2021/05/10 08:42:45;;;;;;;;;;;;;;;20.53;47.05;99023.59;4425999;32;19968;-56
2021/05/10 08:45:11;;;;;;;;;;;;;;;20.75;47.05;99025.13;4419046;32;19969;-55
2021/05/10 08:47:38;;;;;;;;;;;;;;;20.39;47.42;99031.66;4422660;32;19954;-56
2021/05/10 08:50:04;;;;;;;;;;;;;;;20.37;47.11;99034.31;4417910;32;19950;-56
2021/05/10 08:52:30;;;;;;;;;;;;;;;20.26;48.07;99039.69;4429317;32;19953;-56
2021/05/10 08:54:56;;;;;;;;;;;;;;;19.94;48.77;99041.72;4431814;32;20373;-57
2021/05/10 08:57:22;;;;;;;;;;;;;;;19.63;49.45;99026.00;4425431;32;19981;-57
2021/05/10 08:59:48;;;;;;;;;;;;;;;19.82;48.99;99028.56;4430005;32;20330;-57
2021/05/10 09:02:13;;;;;;;;;;;;;;;19.98;48.73;99033.75;4423826;32;20012;-55
2021/05/10 09:04:39;;;;;;;;;;;;;;;19.90;49.09;99055.78;4429261;32;19954;-56
2021/05/10 09:07:05;;;;;;;;;;;;;;;19.91;48.42;99051.38;4420040;32;19999;-57
2021/05/10 09:09:31;;;;;;;;;;;;;;;20.45;47.12;99060.69;4416170;32;19980;-55
2021/05/10 09:11:57;;;;;;;;;;;;;;;20.44;46.90;99067.75;4423397;32;19957;-57
2021/05/10 09:14:23;;;;;;;;;;;;;;;20.48;46.85;99066.81;4434515;32;20085;-54
2021/05/10 09:16:49;;;;;;;;;;;;;;;20.38;46.69;99070.44;4431063;32;19967;-56
2021/05/10 09:19:15;;;;;;;;;;;;;;;20.30;46.72;99085.47;4430783;32;20275;-56
2021/05/10 09:21:41;;;;;;;;;;;;;;;20.26;46.57;99081.09;4430166;32;19954;-55
2021/05/10 09:24:06;;;;;;;;;;;;;;;20.33;46.93;99088.97;4421121;32;19954;-57
2021/05/10 09:26:33;;;;;;;;;;;;;;;20.16;46.81;99104.09;4423255;32;19968;-58
2021/05/10 09:28:58;;;;;;;;;;;;;;;20.15;46.77;99108.50;4423154;32;19958;-56
2021/05/10 09:31:24;;;;;;;;;;;;;;;19.80;48.01;99120.12;4425962;32;19980;-55
2021/05/10 09:33:50;;;;;;;;;;;;;;;19.92;48.06;99109.50;4425898;32;19961;-55
2021/05/10 09:36:16;;;;;;;;;;;;;;;19.79;48.39;99110.44;4433981;32;19968;-56
2021/05/10 09:38:42;;;;;;;;;;;;;;;19.71;48.00;99091.12;4420657;32;20009;-56
2021/05/10 09:41:08;;;;;;;;;;;;;;;19.91;47.52;99085.72;4419124;32;19966;-57
2021/05/10 09:43:35;;;;;;;;;;;;;;;20.35;46.61;99083.69;4419420;32;20379;-57
2021/05/10 09:46:01;;;;;;;;;;;;;;;20.28;46.89;99103.13;4418777;32;19954;-56
2021/05/10 09:48:29;;;;;;;;;;;;;;;20.26;46.76;99120.75;4419855;32;19973;-54
2021/05/10 09:50:55;;;;;;;;;;;;;;;19.62;47.44;99127.25;4423807;32;20057;-55
2021/05/10 09:53:21;;;;;;;;;;;;;;;19.56;47.51;99145.75;4428086;32;19991;-57
2021/05/10 09:55:57;;;;;;;;;;;;;;;19.54;47.72;99150.16;4421182;32;19957;-57
2021/05/10 09:58:23;;;;;;;;;;;;;;;19.84;46.88;99155.31;4417359;32;20448;-56
2021/05/10 10:00:49;;;;;;;;;;;;;;;19.63;47.57;99155.41;4425070;32;19968;-58
2021/05/10 10:03:14;;;;;;;;;;;;;;;19.71;47.67;99149.25;4425192;32;19954;-54
2021/05/10 10:05:40;;;;;;;;;;;;;;;19.98;46.86;99157.94;4421142;32;19962;-56
2021/05/10 10:08:06;;;;;;;;;;;;;;;19.91;47.22;99157.94;4427113;32;19973;-54
2021/05/10 10:10:32;;;;;;;;;;;;;;;19.85;47.39;99154.44;4428021;32;19969;-55
2021/05/10 10:12:58;;;;;;;;;;;;;;;19.98;47.25;99158.81;4424214;32;19942;-55
2021/05/10 10:15:24;;;;;;;;;;;;;;;20.03;47.13;99156.13;4433940;32;19954;-56
2021/05/10 10:17:50;;;;;;;;;;;;;;;20.22;46.77;99162.19;4431049;32;19958;-56
2021/05/10 10:20:16;;;;;;;;;;;;;;;19.99;47.80;99162.34;4426285;32;19954;-57
2021/05/10 10:22:41;;;;;;;;;;;;;;;19.74;48.99;99167.72;4420665;32;20123;-56
2021/05/10 10:25:07;;;;;;;;;;;;;;;20.02;48.11;99164.97;4433574;32;20375;-56
2021/05/10 10:27:33;;;;;;;;;;;;;;;19.70;48.89;99164.19;4419714;32;19972;-58
2021/05/10 10:29:59;;;;;;;;;;;;;;;19.74;49.11;99173.84;4432503;32;20006;-56
2021/05/10 10:32:25;;;;;;;;;;;;;;;19.47;50.27;99174.84;4427739;32;19962;-55
2021/05/10 10:34:51;;;;;;;;;;;;;;;19.63;49.91;99178.28;4419695;32;19950;-56
2021/05/10 10:37:17;;;;;;;;;;;;;;;19.73;49.79;99173.88;4432983;32;19991;-54
2021/05/10 10:39:43;;;;;;;;;;;;;;;19.30;51.16;99185.44;4419277;32;19977;-56
2021/05/10 10:42:11;;;;;;;;;;;;;;;19.40;50.83;99187.19;4417329;32;20036;-56
2021/05/10 10:44:39;;;;;;;;;;;;;;;19.17;51.82;99184.56;4431100;32;19953;-55
2021/05/10 10:47:05;;;;;;;;;;;;;;;19.33;51.38;99185.44;4433321;32;19953;-54
2021/05/10 10:49:31;;;;;;;;;;;;;;;19.36;51.16;99191.59;4424495;32;20009;-57
2021/05/10 10:51:57;;;;;;;;;;;;;;;19.16;51.84;99190.75;4431383;32;19994;-56
2021/05/10 10:54:23;;;;;;;;;;;;;;;19.31;51.44;99188.06;4430820;32;20068;-54
2021/05/10 10:56:51;;;;;;;;;;;;;;;19.74;50.25;99197.62;4428352;32;19942;-55
2021/05/10 10:59:17;;;;;;;;;;;;;;;19.90;49.87;99198.44;4421905;32;19982;-56
2021/05/10 11:01:43;;;;;;;;;;;;;;;19.92;49.75;99202.00;4425179;32;19954;-57
2021/05/10 11:04:09;;;;;;;;;;;;;;;19.93;50.02;99195.81;4425024;32;19957;-56
2021/05/10 11:06:35;;;;;;;;;;;;;;;20.06;49.61;99203.69;4433145;32;19962;-56
2021/05/10 11:09:01;;;;;;;;;;;;;;;20.39;49.51;99214.97;4424125;32;19962;-54
2021/05/10 11:11:27;;;;;;;;;;;;;;;20.39;49.54;99211.47;4417072;32;20347;-54
2021/05/10 11:13:53;;;;;;;;;;;;;;;19.76;51.83;99210.84;4430986;32;20249;-54
2021/05/10 11:16:20;;;;;;;;;;;;;;;19.53;52.69;99214.44;4432578;32;20869;-54
2021/05/10 11:18:56;;;;;;;;;;;;;;;19.08;54.16;99215.41;4418022;32;20055;-56
2021/05/10 11:21:22;;;;;;;;;;;;;;;19.29;53.66;99226.78;4429848;32;19985;-54
2021/05/10 11:23:48;;;;;;;;;;;;;;;19.81;51.91;99235.47;4427243;32;19953;-56
2021/05/10 11:26:14;;;;;;;;;;;;;;;20.15;51.12;99237.16;4426950;32;20330;-56
2021/05/10 11:28:40;;;;;;;;;;;;;;;19.97;51.25;99238.09;4424052;32;19981;-53
2021/05/10 11:31:07;;;;;;;;;;;;;;;19.90;51.51;99261.00;4421703;32;19961;-55
2021/05/10 11:33:32;;;;;;;;;;;;;;;19.67;52.25;99269.84;4433260;32;19977;-54
2021/05/10 11:35:58;;;;;;;;;;;;;;;19.85;51.58;99258.38;4419291;32;19953;-56
2021/05/10 11:38:27;;;;;;;;;;;;;;;19.97;50.77;99248.66;4425491;32;20335;-55
2021/05/10 11:40:53;;;;;;;;;;;;;;;19.98;50.95;99250.44;4425268;32;19953;-48
2021/05/10 11:43:19;;;;;;;;;;;;;;;19.94;50.71;99242.53;4427565;32;20350;-53
2021/05/10 11:45:45;;;;;;;;;;;;;;;20.44;49.14;99226.41;4419755;32;19977;-51
2021/05/10 11:48:10;;;;;;;;;;;;;;;20.73;47.67;99225.31;4418130;32;19985;-46
2021/05/10 11:50:36;;;;;;;;;;;;;;;21.03;46.43;99225.97;4428120;32;19949;-53
2021/05/10 11:53:02;;;;;;;;;;;;;;;21.16;45.97;99232.06;4428602;32;19973;-48
2021/05/10 11:55:28;;;;;;;;;;;;;;;21.29;45.61;99226.66;4426539;32;19946;-51
2021/05/10 11:57:58;;;;;;;;;;;;;;;21.33;45.22;99253.09;4424193;32;19949;-49
2021/05/10 12:00:23;;;;;;;;;;;;;;;21.40;44.89;99276.84;4423827;32;20002;-52
2021/05/10 12:02:49;;;;;;;;;;;;;;;21.46;44.52;99288.25;4425136;32;19992;-51
2021/05/10 12:05:15;;;;;;;;;;;;;;;21.53;44.09;99310.28;4425830;32;19985;-49
2021/05/10 12:07:42;;;;;;;;;;;;;;;21.52;44.01;99324.41;4426000;32;20268;-49
2021/05/10 12:10:08;;;;;;;;;;;;;;;21.58;43.92;99329.66;4424478;32;20021;-47
2021/05/10 12:12:34;;;;;;;;;;;;;;;21.60;43.57;99338.47;4424816;32;20334;-51
2021/05/10 12:15:02;;;;;;;;;;;;;;;21.66;43.44;99358.78;4425738;32;19954;-52
2021/05/10 12:17:28;;;;;;;;;;;;;;;21.68;43.30;99348.16;4424883;32;19973;-49
2021/05/10 12:19:54;;;;;;;;;;;;;;;21.70;43.36;99343.72;4425574;32;19972;-52
2021/05/10 12:22:20;;;;;;;;;;;;;;;21.75;42.89;99353.41;4425781;32;19991;-53
2021/05/10 12:24:46;;;;;;;;;;;;;;;21.76;42.96;99348.94;4425587;32;20327;-53
2021/05/10 12:27:12;;;;;;;;;;;;;;;21.76;42.87;99338.34;4424569;32;20013;-53
2021/05/10 12:29:38;;;;;;;;;;;;;;;21.79;42.83;99348.06;4424415;32;19966;-51
2021/05/10 12:32:04;;;;;;;;;;;;;;;21.84;42.70;99356.81;4424463;32;19955;-50
2021/05/10 12:34:30;;;;;;;;;;;;;;;21.86;42.41;99355.06;4424223;32;19995;-53
2021/05/10 12:36:56;;;;;;;;;;;;;;;21.88;42.43;99340.88;4426589;32;19977;-52
2021/05/10 12:39:22;;;;;;;;;;;;;;;21.84;42.43;99347.13;4417863;32;20038;-48
2021/05/10 12:41:48;;;;;;;;;;;;;;;21.79;42.56;99348.06;4431617;32;19946;-53
2021/05/10 12:44:13;;;;;;;;;;;;;;;21.75;42.64;99337.50;4432065;32;19958;-47
2021/05/10 12:46:39;;;;;;;;;;;;;;;21.74;42.57;99324.25;4419665;32;20287;-52
2021/05/10 12:49:05;;;;;;;;;;;;;;;21.75;42.40;99331.31;4417282;32;19957;-51